createdAt,value
2023-05-02T00:01:15.138Z,11.90
2023-05-02T00:07:17.309Z,11.80
2023-05-02T00:13:19.806Z,11.80
2023-05-02T00:19:22.264Z,11.80
2023-05-02T00:25:24.563Z,11.70
2023-05-02T00:31:27.117Z,11.70
2023-05-02T00:37:29.655Z,11.80
2023-05-02T00:43:31.897Z,11.70
2023-05-02T00:49:34.332Z,11.50
2023-05-02T00:55:37.205Z,11.50
2023-05-02T01:02:01.015Z,11.40
2023-05-02T01:08:25.485Z,11.30
2023-05-02T01:14:31.517Z,11.20
2023-05-02T01:20:38.977Z,11.10
2023-05-02T01:27:03.231Z,11.10
2023-05-02T01:33:06.185Z,11.00
2023-05-02T01:39:10.515Z,10.90
2023-05-02T01:45:13.821Z,10.90
2023-05-02T01:51:19.509Z,10.80
2023-05-02T01:57:22.209Z,10.70
2023-05-02T02:03:25.206Z,10.50
2023-05-02T02:09:29.056Z,10.50
2023-05-02T02:15:35.858Z,10.40
2023-05-02T02:21:41.468Z,10.30
2023-05-02T02:27:44.399Z,10.30
2023-05-02T02:33:47.222Z,10.20
2023-05-02T02:40:00.083Z,10.10
2023-05-02T02:46:46.979Z,10.10
2023-05-02T02:53:04.864Z,10.10
2023-05-02T02:59:39.043Z,10.00
2023-05-02T03:05:45.138Z,10.00
2023-05-02T03:11:47.983Z,10.00
2023-05-02T03:17:50.923Z,10.00
2023-05-02T03:23:53.676Z,10.00
2023-05-02T03:29:55.994Z,10.00
2023-05-02T03:35:59.864Z,10.10
2023-05-02T03:42:02.320Z,10.20
2023-05-02T03:48:04.936Z,10.30
2023-05-02T03:54:08.041Z,10.40
2023-05-02T04:00:12.725Z,10.70
2023-05-02T04:06:15.190Z,10.90
2023-05-02T04:12:21.051Z,11.20
2023-05-02T04:18:27.093Z,11.50
2023-05-02T04:24:29.532Z,11.80
2023-05-02T04:30:33.628Z,12.10
2023-05-02T04:36:42.408Z,12.30
2023-05-02T04:42:48.487Z,12.50
2023-05-02T04:48:59.838Z,12.60
2023-05-02T04:55:02.030Z,12.90
2023-05-02T05:01:04.517Z,13.30
2023-05-02T05:07:06.982Z,13.60
2023-05-02T05:13:09.199Z,14.20
2023-05-02T05:19:12.334Z,14.80
2023-05-02T05:25:15.601Z,15.20
2023-05-02T05:31:20.209Z,16.30
2023-05-02T05:37:27.059Z,16.70
2023-05-02T05:43:30.738Z,17.40
2023-05-02T05:49:38.543Z,17.80
2023-05-02T05:55:43.360Z,24.10
2023-05-02T06:01:46.052Z,27.30
2023-05-02T06:07:50.061Z,29.10
2023-05-02T06:13:53.488Z,30.80
2023-05-02T06:19:56.563Z,31.60
2023-05-02T06:26:03.012Z,30.40
2023-05-02T06:32:05.638Z,29.90
2023-05-02T06:38:08.151Z,31.20
2023-05-02T06:44:10.401Z,30.70
2023-05-02T06:50:13.086Z,32.40
2023-05-02T06:56:15.608Z,32.70
2023-05-02T07:02:17.952Z,33.30
2023-05-02T07:08:22.765Z,34.00
2023-05-02T07:14:24.966Z,34.40
2023-05-02T07:20:27.454Z,34.30
2023-05-02T07:26:30.640Z,34.40
2023-05-02T07:32:33.176Z,33.90
2023-05-02T07:38:35.390Z,33.20
2023-05-02T07:44:46.494Z,33.90
2023-05-02T07:50:48.926Z,32.10
2023-05-02T07:56:52.588Z,33.20
2023-05-02T08:02:55.350Z,34.40
2023-05-02T08:08:58.500Z,34.50
2023-05-02T08:15:05.356Z,34.70
2023-05-02T08:21:07.655Z,34.20
2023-05-02T08:27:09.972Z,34.60
2023-05-02T08:33:12.392Z,33.60
2023-05-02T08:39:15.505Z,33.10
2023-05-02T08:45:19.455Z,34.10
2023-05-02T08:51:24.315Z,33.90
2023-05-02T08:57:29.295Z,33.80
2023-05-02T09:03:34.032Z,32.00
2023-05-02T09:09:38.169Z,31.10
2023-05-02T09:15:40.809Z,32.40
2023-05-02T09:21:44.087Z,32.60
2023-05-02T09:27:51.825Z,32.30
2023-05-02T09:33:55.997Z,32.10
2023-05-02T09:40:12.078Z,31.80
2023-05-02T09:46:14.233Z,32.70
2023-05-02T09:52:20.314Z,31.70
2023-05-02T09:58:24.370Z,30.50
2023-05-02T10:04:27.772Z,30.50
2023-05-02T10:10:32.469Z,30.10
2023-05-02T10:16:37.725Z,30.80
2023-05-02T10:22:40.804Z,29.50
2023-05-02T10:28:43.515Z,29.70
2023-05-02T10:34:47.355Z,29.90
2023-05-02T10:40:58.324Z,29.70
2023-05-02T10:47:01.605Z,28.60
2023-05-02T10:53:25.318Z,29.00
2023-05-02T10:59:29.824Z,28.60
2023-05-02T11:05:37.622Z,28.40
2023-05-02T11:11:44.251Z,29.40
2023-05-02T11:18:03.586Z,28.70
2023-05-02T11:24:40.544Z,29.40
2023-05-02T11:30:44.850Z,28.60
2023-05-02T11:36:47.113Z,28.50
2023-05-02T11:42:49.732Z,28.70
2023-05-02T11:48:52.109Z,29.30
2023-05-02T11:54:56.501Z,28.80
2023-05-02T12:00:59.544Z,28.30
2023-05-02T12:07:02.154Z,29.30
2023-05-02T12:13:06.343Z,28.70
2023-05-02T12:19:08.804Z,30.00
2023-05-02T12:25:11.480Z,30.70
2023-05-02T12:31:13.631Z,31.30
2023-05-02T12:37:24.129Z,30.70
2023-05-02T12:43:26.506Z,30.80
2023-05-02T12:49:28.849Z,30.10
2023-05-02T12:55:33.039Z,30.50
2023-05-02T13:01:36.002Z,29.70
2023-05-02T13:07:38.438Z,28.60
2023-05-02T13:13:40.689Z,28.10
2023-05-02T13:19:47.667Z,27.40
2023-05-02T13:25:56.276Z,26.00
2023-05-02T13:31:58.769Z,24.70
2023-05-02T13:38:01.112Z,24.30
2023-05-02T13:44:04.305Z,24.10
2023-05-02T13:50:07.791Z,23.90
2023-05-02T13:56:10.479Z,23.60
2023-05-02T14:02:13.919Z,23.60
2023-05-02T14:08:18.693Z,23.40
2023-05-02T14:14:21.214Z,23.50
2023-05-02T14:20:26.613Z,23.60
2023-05-02T14:26:28.805Z,23.40
2023-05-02T14:32:30.871Z,23.20
2023-05-02T14:38:33.256Z,23.20
2023-05-02T14:44:35.522Z,23.00
2023-05-02T14:50:39.893Z,22.90
2023-05-02T14:56:42.637Z,22.90
2023-05-02T15:02:45.050Z,22.70
2023-05-02T15:08:48.934Z,22.60
2023-05-02T15:14:51.356Z,22.70
2023-05-02T15:20:53.704Z,22.70
2023-05-02T15:26:56.216Z,22.50
2023-05-02T15:32:58.358Z,22.40
2023-05-02T15:39:01.124Z,22.40
2023-05-02T15:45:04.641Z,22.30
2023-05-02T15:51:09.489Z,22.20
2023-05-02T15:57:13.017Z,22.20
2023-05-02T16:03:16.195Z,22.00
2023-05-02T16:09:18.840Z,21.50
2023-05-02T16:15:21.661Z,21.20
2023-05-02T16:21:24.238Z,20.90
2023-05-02T16:27:26.682Z,20.70
2023-05-02T16:33:28.764Z,20.40
2023-05-02T16:39:31.461Z,20.20
2023-05-02T16:45:33.973Z,20.00
2023-05-02T16:51:36.646Z,19.80
2023-05-02T16:57:39.380Z,19.50
2023-05-02T17:03:41.936Z,19.30
2023-05-02T17:09:45.036Z,19.10
2023-05-02T17:15:47.378Z,18.90
2023-05-02T17:21:49.542Z,18.60
2023-05-02T17:27:51.819Z,18.40
2023-05-02T17:33:54.210Z,18.20
2023-05-02T17:39:56.706Z,18.00
2023-05-02T17:45:59.249Z,17.80
2023-05-02T17:52:01.703Z,17.50
2023-05-02T17:58:04.432Z,17.30
2023-05-02T18:04:07.204Z,17.10
2023-05-02T18:10:09.641Z,16.90
2023-05-02T18:16:12.619Z,16.70
2023-05-02T18:22:19.134Z,16.50
2023-05-02T18:28:22.738Z,16.30
2023-05-02T18:34:25.215Z,16.10
2023-05-02T18:40:27.793Z,15.90
2023-05-02T18:46:30.325Z,15.70
2023-05-02T18:52:32.418Z,15.50
2023-05-02T18:58:34.732Z,15.30
2023-05-02T19:04:39.977Z,15.10
2023-05-02T19:10:42.344Z,15.00
2023-05-02T19:16:45.154Z,14.90
2023-05-02T19:22:47.213Z,14.80
2023-05-02T19:28:49.513Z,14.70
2023-05-02T19:34:51.945Z,14.60
2023-05-02T19:40:54.586Z,14.50
2023-05-02T19:46:57.307Z,14.40
2023-05-02T19:53:01.852Z,14.30
2023-05-02T19:59:03.965Z,14.10
2023-05-02T20:05:07.837Z,14.00
2023-05-02T20:11:10.054Z,13.80
2023-05-02T20:17:12.412Z,13.60
2023-05-02T20:23:14.995Z,13.50
2023-05-02T20:29:17.498Z,13.40
2023-05-02T20:35:20.115Z,13.30
2023-05-02T20:41:24.234Z,13.30
2023-05-02T20:47:27.610Z,13.20
2023-05-02T20:53:29.959Z,13.10
2023-05-02T20:59:32.318Z,13.00
2023-05-02T21:05:34.536Z,12.90
2023-05-02T21:11:37.048Z,12.80
2023-05-02T21:17:40.319Z,12.80
2023-05-02T21:23:42.610Z,12.80
2023-05-02T21:29:45.226Z,12.70
2023-05-02T21:35:47.715Z,12.70
2023-05-02T21:41:50.063Z,12.60
2023-05-02T21:47:53.375Z,12.50
2023-05-02T21:53:56.002Z,12.40
2023-05-02T21:59:58.516Z,12.30
2023-05-02T22:06:06.782Z,12.20
2023-05-02T22:12:09.671Z,12.20
2023-05-02T22:18:15.279Z,12.20
2023-05-02T22:24:18.381Z,12.10
2023-05-02T22:30:20.857Z,12.00
2023-05-02T22:36:23.246Z,11.90
2023-05-02T22:42:25.973Z,11.80
2023-05-02T22:48:28.080Z,11.70
2023-05-02T22:54:30.655Z,11.60
2023-05-02T23:00:33.230Z,11.70
2023-05-02T23:06:35.918Z,11.70
2023-05-02T23:12:39.601Z,11.60
2023-05-02T23:18:42.186Z,11.60
2023-05-02T23:24:47.926Z,11.60
2023-05-02T23:30:50.516Z,11.60
2023-05-02T23:36:53.394Z,11.50
2023-05-02T23:42:55.458Z,11.50
2023-05-02T23:48:57.769Z,11.50
2023-05-02T23:55:00.733Z,11.50
